createdAt,value
2023-05-09T00:01:07.875Z,4.80
2023-05-09T00:03:36.242Z,7.57
2023-05-09T00:06:04.419Z,6.43
2023-05-09T00:08:33.620Z,8.05
2023-05-09T00:11:03.398Z,5.18
2023-05-09T00:13:31.701Z,9.48
2023-05-09T00:16:01.052Z,6.65
2023-05-09T00:18:31.116Z,5.18
2023-05-09T00:20:59.370Z,7.20
2023-05-09T00:23:27.498Z,7.50
2023-05-09T00:25:55.649Z,6.65
2023-05-09T00:28:25.206Z,7.05
2023-05-09T00:30:53.500Z,6.90
2023-05-09T00:33:21.812Z,6.18
2023-05-09T00:35:49.986Z,11.20
2023-05-09T00:38:18.286Z,7.53
2023-05-09T00:40:46.510Z,8.43
2023-05-09T00:43:14.888Z,6.30
2023-05-09T00:45:44.816Z,6.90
2023-05-09T00:48:13.158Z,5.50
2023-05-09T00:50:43.902Z,8.50
2023-05-09T00:53:12.587Z,6.10
2023-05-09T00:55:43.878Z,5.80
2023-05-09T00:58:12.616Z,6.28
2023-05-09T01:00:41.725Z,6.03
2023-05-09T01:03:11.490Z,6.70
2023-05-09T01:05:51.014Z,6.55
2023-05-09T01:08:24.620Z,5.53
2023-05-09T01:11:02.085Z,6.88
2023-05-09T01:13:35.760Z,7.90
2023-05-09T01:16:10.306Z,8.85
2023-05-09T01:18:45.340Z,6.18
2023-05-09T01:21:17.506Z,5.03
2023-05-09T01:24:29.967Z,6.82
2023-05-09T01:27:16.759Z,6.65
2023-05-09T01:29:48.694Z,7.57
2023-05-09T01:32:20.439Z,13.57
2023-05-09T01:34:52.950Z,8.82
2023-05-09T01:37:24.841Z,8.55
2023-05-09T01:39:56.935Z,11.27
2023-05-09T01:42:28.954Z,7.95
2023-05-09T01:45:00.463Z,6.88
2023-05-09T01:47:29.339Z,8.65
2023-05-09T01:49:58.312Z,10.15
2023-05-09T01:52:27.428Z,8.13
2023-05-09T01:54:56.881Z,7.63
2023-05-09T01:57:26.090Z,7.82
2023-05-09T01:59:55.302Z,13.38
2023-05-09T02:02:26.055Z,9.40
2023-05-09T02:04:56.834Z,7.65
2023-05-09T02:07:25.635Z,7.35
2023-05-09T02:09:59.096Z,7.30
2023-05-09T02:12:28.044Z,7.88
2023-05-09T02:14:56.206Z,9.30
2023-05-09T02:17:25.808Z,7.10
2023-05-09T02:19:54.187Z,8.70
2023-05-09T02:22:22.580Z,7.53
2023-05-09T02:24:51.150Z,10.05
2023-05-09T02:27:20.646Z,10.43
2023-05-09T02:29:51.721Z,8.45
2023-05-09T02:32:24.420Z,10.60
2023-05-09T02:34:56.558Z,7.30
2023-05-09T02:37:25.755Z,7.63
2023-05-09T02:39:53.914Z,6.45
2023-05-09T02:42:25.214Z,10.10
2023-05-09T02:44:55.002Z,8.15
2023-05-09T02:47:23.530Z,6.32
2023-05-09T02:49:54.033Z,8.65
2023-05-09T02:52:23.880Z,8.15
2023-05-09T02:54:52.141Z,7.13
2023-05-09T02:57:21.014Z,6.63
2023-05-09T02:59:49.198Z,8.35
2023-05-09T03:02:18.767Z,10.52
2023-05-09T03:04:47.018Z,6.65
2023-05-09T03:07:15.224Z,9.23
2023-05-09T03:09:44.857Z,9.05
2023-05-09T03:12:13.008Z,10.68
2023-05-09T03:14:41.180Z,5.68
2023-05-09T03:17:09.329Z,8.43
2023-05-09T03:19:38.073Z,7.07
2023-05-09T03:22:06.802Z,11.70
2023-05-09T03:24:39.668Z,6.82
2023-05-09T03:27:09.282Z,8.32
2023-05-09T03:29:37.446Z,7.85
2023-05-09T03:32:06.851Z,11.55
2023-05-09T03:34:35.505Z,10.90
2023-05-09T03:37:04.293Z,8.88
2023-05-09T03:39:35.734Z,9.15
2023-05-09T03:42:04.067Z,16.20
2023-05-09T03:44:33.756Z,9.85
2023-05-09T03:47:02.047Z,10.65
2023-05-09T03:49:36.759Z,8.20
2023-05-09T03:52:05.621Z,8.48
2023-05-09T03:54:34.687Z,9.95
2023-05-09T03:57:03.494Z,8.77
2023-05-09T03:59:33.210Z,13.98
2023-05-09T04:02:02.439Z,9.65
2023-05-09T04:04:31.355Z,7.03
2023-05-09T04:07:00.470Z,7.28
2023-05-09T04:09:29.150Z,7.50
2023-05-09T04:11:57.404Z,6.53
2023-05-09T04:14:26.390Z,8.73
2023-05-09T04:16:55.997Z,7.88
2023-05-09T04:19:26.683Z,7.65
2023-05-09T04:21:54.946Z,8.23
2023-05-09T04:24:23.261Z,11.43
2023-05-09T04:26:52.154Z,5.03
2023-05-09T04:29:23.470Z,9.35
2023-05-09T04:31:56.762Z,6.47
2023-05-09T04:34:27.837Z,6.22
2023-05-09T04:36:57.892Z,7.30
2023-05-09T04:39:26.237Z,5.55
2023-05-09T04:42:04.313Z,8.07
2023-05-09T04:44:33.140Z,7.18
2023-05-09T04:47:03.675Z,6.60
2023-05-09T04:49:31.920Z,9.02
2023-05-09T04:52:00.112Z,8.75
2023-05-09T04:54:28.372Z,6.10
2023-05-09T04:57:06.395Z,6.65
2023-05-09T04:59:42.916Z,6.60
2023-05-09T05:02:17.537Z,6.72
2023-05-09T05:04:46.993Z,6.28
2023-05-09T05:07:15.769Z,11.80
2023-05-09T05:09:45.056Z,5.50
2023-05-09T05:12:13.495Z,4.60
2023-05-09T05:14:43.262Z,4.05
2023-05-09T05:17:17.384Z,6.10
2023-05-09T05:19:47.220Z,4.72
2023-05-09T05:22:16.474Z,6.35
2023-05-09T05:24:47.297Z,5.07
2023-05-09T05:27:16.798Z,6.00
2023-05-09T05:29:45.178Z,4.68
2023-05-09T05:32:14.817Z,6.60
2023-05-09T05:34:43.508Z,4.72
2023-05-09T05:37:11.804Z,4.63
2023-05-09T05:39:40.037Z,7.03
2023-05-09T05:42:08.464Z,7.47
2023-05-09T05:44:37.016Z,6.78
2023-05-09T05:47:05.637Z,7.50
2023-05-09T05:49:35.253Z,4.65
2023-05-09T05:52:03.638Z,5.80
2023-05-09T05:54:31.968Z,5.70
2023-05-09T05:57:00.177Z,4.90
2023-05-09T05:59:28.439Z,6.00
2023-05-09T06:01:56.799Z,7.10
2023-05-09T06:04:25.093Z,6.03
2023-05-09T06:06:54.645Z,5.22
2023-05-09T06:09:22.844Z,7.82
2023-05-09T06:11:51.454Z,6.20
2023-05-09T06:14:20.574Z,6.65
2023-05-09T06:16:49.085Z,5.30
2023-05-09T06:19:17.305Z,6.38
2023-05-09T06:21:45.504Z,4.57
2023-05-09T06:24:27.550Z,5.10
2023-05-09T06:27:00.266Z,6.57
2023-05-09T06:29:28.402Z,5.30
2023-05-09T06:31:56.682Z,8.70
2023-05-09T06:34:27.795Z,6.95
2023-05-09T06:36:55.956Z,5.03
2023-05-09T06:39:25.536Z,4.85
2023-05-09T06:41:53.736Z,5.57
2023-05-09T06:44:32.611Z,4.57
2023-05-09T06:47:01.780Z,5.88
2023-05-09T06:49:29.947Z,6.45
2023-05-09T06:51:58.128Z,7.97
2023-05-09T06:54:27.836Z,5.70
2023-05-09T06:56:56.020Z,4.18
2023-05-09T06:59:27.035Z,4.82
2023-05-09T07:01:58.172Z,11.32
2023-05-09T07:04:26.519Z,5.88
2023-05-09T07:06:56.170Z,5.43
2023-05-09T07:09:28.900Z,6.15
2023-05-09T07:11:57.685Z,4.20
2023-05-09T07:14:25.884Z,5.57
2023-05-09T07:16:57.987Z,5.07
2023-05-09T07:19:30.541Z,4.75
2023-05-09T07:21:58.690Z,7.85
2023-05-09T07:24:27.062Z,5.22
2023-05-09T07:26:56.759Z,5.90
2023-05-09T07:29:24.917Z,6.32
2023-05-09T07:31:53.122Z,5.20
2023-05-09T07:34:21.446Z,6.78
2023-05-09T07:36:49.692Z,6.78
2023-05-09T07:39:17.911Z,5.53
2023-05-09T07:41:48.601Z,7.15
2023-05-09T07:44:18.439Z,5.20
2023-05-09T07:46:46.762Z,5.00
2023-05-09T07:49:14.961Z,5.68
2023-05-09T07:51:43.105Z,5.50
2023-05-09T07:54:11.263Z,7.72
2023-05-09T07:56:39.432Z,6.60
2023-05-09T07:59:07.633Z,7.28
2023-05-09T08:01:37.151Z,4.65
2023-05-09T08:04:06.821Z,6.82
2023-05-09T08:06:35.440Z,5.65
2023-05-09T08:09:06.338Z,6.93
2023-05-09T08:11:37.481Z,6.35
2023-05-09T08:14:05.693Z,5.22
2023-05-09T08:16:34.079Z,7.35
2023-05-09T08:19:03.714Z,5.38
2023-05-09T08:21:31.883Z,5.07
2023-05-09T08:24:01.733Z,5.40
2023-05-09T08:26:29.901Z,4.28
2023-05-09T08:28:58.055Z,8.23
2023-05-09T08:31:27.064Z,5.80
2023-05-09T08:33:55.294Z,5.22
2023-05-09T08:36:24.908Z,3.63
2023-05-09T08:38:53.111Z,4.82
2023-05-09T08:41:27.914Z,5.65
2023-05-09T08:43:56.589Z,6.03
2023-05-09T08:46:29.536Z,3.42
2023-05-09T08:48:59.202Z,4.72
2023-05-09T08:51:32.158Z,4.82
2023-05-09T08:54:00.808Z,6.38
2023-05-09T08:56:29.910Z,4.32
2023-05-09T08:58:58.127Z,3.83
2023-05-09T09:01:27.905Z,4.00
2023-05-09T09:03:56.764Z,5.63
2023-05-09T09:06:25.870Z,4.38
2023-05-09T09:08:58.816Z,4.78
2023-05-09T09:11:28.411Z,5.22
2023-05-09T09:14:01.882Z,4.20
2023-05-09T09:16:31.360Z,2.83
2023-05-09T09:19:01.164Z,5.85
2023-05-09T09:21:29.307Z,9.05
2023-05-09T09:23:59.491Z,3.60
2023-05-09T09:26:29.281Z,5.65
2023-05-09T09:28:58.003Z,2.88
2023-05-09T09:31:28.539Z,8.77
2023-05-09T09:34:01.458Z,4.63
2023-05-09T09:36:32.168Z,3.53
2023-05-09T09:39:04.688Z,3.08
2023-05-09T09:41:36.348Z,7.25
2023-05-09T09:44:11.546Z,3.50
2023-05-09T09:46:45.820Z,2.47
2023-05-09T09:49:14.820Z,3.67
2023-05-09T09:51:43.425Z,2.88
2023-05-09T09:54:13.982Z,2.83
2023-05-09T09:56:43.859Z,2.40
2023-05-09T09:59:16.074Z,3.88
2023-05-09T10:01:58.421Z,2.22
2023-05-09T10:04:28.632Z,3.85
2023-05-09T10:06:58.296Z,3.97
2023-05-09T10:09:31.641Z,5.60
2023-05-09T10:12:04.082Z,2.90
2023-05-09T10:14:35.277Z,3.80
2023-05-09T10:17:05.820Z,5.65
2023-05-09T10:19:36.872Z,6.50
2023-05-09T10:22:11.378Z,4.25
2023-05-09T10:24:49.254Z,4.53
2023-05-09T10:27:23.232Z,4.05
2023-05-09T10:29:57.183Z,3.30
2023-05-09T10:32:30.790Z,4.60
2023-05-09T10:35:05.770Z,3.75
2023-05-09T10:37:34.922Z,3.72
2023-05-09T10:40:07.127Z,4.95
2023-05-09T10:42:35.410Z,4.10
2023-05-09T10:45:04.008Z,2.00
2023-05-09T10:47:33.323Z,4.30
2023-05-09T10:50:01.899Z,5.97
2023-05-09T10:52:33.977Z,2.00
2023-05-09T10:55:05.161Z,5.10
2023-05-09T10:57:36.370Z,3.85
2023-05-09T11:00:05.976Z,6.25
2023-05-09T11:02:34.865Z,2.55
2023-05-09T11:05:16.815Z,2.08
2023-05-09T11:07:48.174Z,5.88
2023-05-09T11:10:19.332Z,1.55
2023-05-09T11:12:58.395Z,4.30
2023-05-09T11:15:27.810Z,1.60
2023-05-09T11:18:07.428Z,4.72
2023-05-09T11:20:36.520Z,5.43
2023-05-09T11:23:06.749Z,1.83
2023-05-09T11:25:36.388Z,2.03
2023-05-09T11:28:07.479Z,4.00
2023-05-09T11:30:44.241Z,3.13
2023-05-09T11:33:24.136Z,4.97
2023-05-09T11:36:17.232Z,1.95
2023-05-09T11:38:46.172Z,5.18
2023-05-09T11:41:16.198Z,1.88
2023-05-09T11:43:45.584Z,2.60
2023-05-09T11:46:13.836Z,2.20
2023-05-09T11:48:45.852Z,3.35
2023-05-09T11:51:18.894Z,2.40
2023-05-09T11:53:50.489Z,4.00
2023-05-09T11:56:20.076Z,2.08
2023-05-09T11:58:50.841Z,3.88
2023-05-09T12:01:19.694Z,1.70
2023-05-09T12:03:48.080Z,1.65
2023-05-09T12:06:18.226Z,4.40
2023-05-09T12:08:47.114Z,4.53
2023-05-09T12:11:15.901Z,3.17
2023-05-09T12:13:50.487Z,2.80
2023-05-09T12:16:19.920Z,4.18
2023-05-09T12:18:49.729Z,2.58
2023-05-09T12:21:18.445Z,8.00
2023-05-09T12:23:49.892Z,2.88
2023-05-09T12:26:22.309Z,1.63
2023-05-09T12:28:52.870Z,2.00
2023-05-09T12:31:22.183Z,2.10
2023-05-09T12:33:50.551Z,3.17
2023-05-09T12:36:18.777Z,2.33
2023-05-09T12:38:54.658Z,3.50
2023-05-09T12:41:37.111Z,2.55
2023-05-09T12:44:11.214Z,4.88
2023-05-09T12:46:39.422Z,1.77
2023-05-09T12:49:20.314Z,4.43
2023-05-09T12:51:50.848Z,2.78
2023-05-09T12:54:22.587Z,2.00
2023-05-09T12:56:52.589Z,2.65
2023-05-09T12:59:26.976Z,1.98
2023-05-09T13:01:57.628Z,2.00
2023-05-09T13:04:27.670Z,3.45
2023-05-09T13:06:57.451Z,1.45
2023-05-09T13:09:27.380Z,1.60
2023-05-09T13:12:00.264Z,2.85
2023-05-09T13:14:29.857Z,2.03
2023-05-09T13:16:58.146Z,4.97
2023-05-09T13:19:27.307Z,2.28
2023-05-09T13:21:56.223Z,3.05
2023-05-09T13:24:27.452Z,4.78
2023-05-09T13:26:56.068Z,2.33
2023-05-09T13:29:24.205Z,2.03
2023-05-09T13:31:54.046Z,2.80
2023-05-09T13:34:24.565Z,1.35
2023-05-09T13:36:53.028Z,6.57
2023-05-09T13:39:21.601Z,2.78
2023-05-09T13:41:52.956Z,2.17
2023-05-09T13:44:21.189Z,2.20
2023-05-09T13:46:49.394Z,3.15
2023-05-09T13:49:22.442Z,3.25
2023-05-09T13:51:50.768Z,2.58
2023-05-09T13:54:19.910Z,4.45
2023-05-09T13:56:48.364Z,2.35
2023-05-09T13:59:16.659Z,2.35
2023-05-09T14:01:45.155Z,1.63
2023-05-09T14:04:13.823Z,2.40
2023-05-09T14:06:48.022Z,2.40
2023-05-09T14:09:16.755Z,2.42
2023-05-09T14:11:44.961Z,2.65
2023-05-09T14:14:13.421Z,1.73
2023-05-09T14:16:41.744Z,2.22
2023-05-09T14:19:09.925Z,2.90
2023-05-09T14:21:38.163Z,2.83
2023-05-09T14:24:08.661Z,1.85
2023-05-09T14:26:36.929Z,2.47
2023-05-09T14:29:07.997Z,2.20
2023-05-09T14:31:36.856Z,2.25
2023-05-09T14:34:05.557Z,3.53
2023-05-09T14:36:34.259Z,2.92
2023-05-09T14:39:03.805Z,3.03
2023-05-09T14:41:33.358Z,3.67
2023-05-09T14:44:01.526Z,4.55
2023-05-09T14:46:30.047Z,7.22
2023-05-09T14:49:03.928Z,2.55
2023-05-09T14:51:33.290Z,4.45
2023-05-09T14:54:04.385Z,7.65
2023-05-09T14:56:34.328Z,1.85
2023-05-09T14:59:03.761Z,1.50
2023-05-09T15:01:32.059Z,2.63
2023-05-09T15:04:00.408Z,3.72
2023-05-09T15:06:29.156Z,2.17
2023-05-09T15:08:57.407Z,3.67
2023-05-09T15:11:28.691Z,2.17
2023-05-09T15:14:00.394Z,2.25
2023-05-09T15:16:28.676Z,2.47
2023-05-09T15:18:57.007Z,2.28
2023-05-09T15:21:25.163Z,2.90
2023-05-09T15:23:53.335Z,1.73
2023-05-09T15:26:22.340Z,3.22
2023-05-09T15:28:50.524Z,5.53
2023-05-09T15:31:21.551Z,2.60
2023-05-09T15:33:49.801Z,3.42
2023-05-09T15:36:20.819Z,1.77
2023-05-09T15:38:49.727Z,5.10
2023-05-09T15:41:18.518Z,4.93
2023-05-09T15:43:46.697Z,2.22
2023-05-09T15:46:15.208Z,2.55
2023-05-09T15:48:44.819Z,2.30
2023-05-09T15:51:14.528Z,3.33
2023-05-09T15:53:44.604Z,2.50
2023-05-09T15:56:12.788Z,3.20
2023-05-09T15:58:41.335Z,1.92
2023-05-09T16:01:13.145Z,2.35
2023-05-09T16:03:41.622Z,1.95
2023-05-09T16:06:14.006Z,2.17
2023-05-09T16:08:42.167Z,2.17
2023-05-09T16:11:11.124Z,1.83
2023-05-09T16:13:39.332Z,1.58
2023-05-09T16:16:07.903Z,2.50
2023-05-09T16:18:36.163Z,3.38
2023-05-09T16:21:04.469Z,1.77
2023-05-09T16:23:34.101Z,1.88
2023-05-09T16:26:02.302Z,3.05
2023-05-09T16:28:30.445Z,1.70
2023-05-09T16:31:00.069Z,5.03
2023-05-09T16:33:28.500Z,4.28
2023-05-09T16:35:56.737Z,2.92
2023-05-09T16:38:24.900Z,1.52
2023-05-09T16:40:56.737Z,1.88
2023-05-09T16:43:24.957Z,2.15
2023-05-09T16:45:53.144Z,3.97
2023-05-09T16:48:21.369Z,4.55
2023-05-09T16:50:53.431Z,2.67
2023-05-09T16:53:22.756Z,1.83
2023-05-09T16:55:53.759Z,1.60
2023-05-09T16:58:23.432Z,1.60
2023-05-09T17:00:51.797Z,7.50
2023-05-09T17:03:19.984Z,5.35
2023-05-09T17:05:48.127Z,4.95
2023-05-09T17:08:16.254Z,5.78
2023-05-09T17:10:46.153Z,1.52
2023-05-09T17:13:14.355Z,3.08
2023-05-09T17:15:47.087Z,2.97
2023-05-09T17:18:22.014Z,3.85
2023-05-09T17:20:56.042Z,2.65
2023-05-09T17:23:25.070Z,3.20
2023-05-09T17:25:53.218Z,2.42
2023-05-09T17:28:21.425Z,3.05
2023-05-09T17:30:51.253Z,2.85
2023-05-09T17:33:19.415Z,4.50
2023-05-09T17:35:49.419Z,5.13
2023-05-09T17:38:17.947Z,4.55
2023-05-09T17:40:46.227Z,7.75
2023-05-09T17:43:14.526Z,6.68
2023-05-09T17:45:46.231Z,8.05
2023-05-09T17:48:15.949Z,5.32
2023-05-09T17:50:46.433Z,3.67
2023-05-09T17:53:17.173Z,7.07
2023-05-09T17:55:45.724Z,5.22
2023-05-09T17:58:14.873Z,4.18
2023-05-09T18:00:43.172Z,9.30
2023-05-09T18:03:11.562Z,3.17
2023-05-09T18:05:41.445Z,5.50
2023-05-09T18:08:09.620Z,5.43
2023-05-09T18:10:37.869Z,9.75
2023-05-09T18:13:06.655Z,3.40
2023-05-09T18:15:38.476Z,4.18
2023-05-09T18:18:07.964Z,3.00
2023-05-09T18:20:38.401Z,3.40
2023-05-09T18:23:08.073Z,6.30
2023-05-09T18:25:38.653Z,4.75
2023-05-09T18:28:06.970Z,6.22
2023-05-09T18:30:36.130Z,5.30
2023-05-09T18:33:07.343Z,3.90
2023-05-09T18:35:35.591Z,6.13
2023-05-09T18:38:03.763Z,5.20
2023-05-09T18:40:35.635Z,7.38
2023-05-09T18:43:03.758Z,4.30
2023-05-09T18:45:32.374Z,3.75
2023-05-09T18:48:00.950Z,4.65
2023-05-09T18:50:29.319Z,3.75
2023-05-09T18:52:57.702Z,6.65
2023-05-09T18:55:26.196Z,15.13
2023-05-09T18:57:56.017Z,8.30
2023-05-09T19:00:27.204Z,30.27
2023-05-09T19:02:55.536Z,14.65
2023-05-09T19:05:25.191Z,6.40
2023-05-09T19:07:54.307Z,11.98
2023-05-09T19:10:22.777Z,8.48
2023-05-09T19:12:51.227Z,30.33
2023-05-09T19:15:23.164Z,28.55
2023-05-09T19:17:51.534Z,18.95
2023-05-09T19:20:19.926Z,20.85
2023-05-09T19:22:51.237Z,20.42
2023-05-09T19:25:19.765Z,14.90
2023-05-09T19:27:48.328Z,12.07
2023-05-09T19:30:17.264Z,14.05
2023-05-09T19:32:47.096Z,18.63
2023-05-09T19:35:15.982Z,32.53
2023-05-09T19:37:44.160Z,42.47
2023-05-09T19:40:13.058Z,14.70
2023-05-09T19:42:41.888Z,8.57
2023-05-09T19:45:11.030Z,13.45
2023-05-09T19:47:39.281Z,12.73
2023-05-09T19:50:10.244Z,12.27
2023-05-09T19:52:38.398Z,10.50
2023-05-09T19:55:07.448Z,20.83
2023-05-09T19:57:35.595Z,31.30
2023-05-09T20:00:03.858Z,14.80
2023-05-09T20:02:35.962Z,20.13
2023-05-09T20:05:06.503Z,13.00
2023-05-09T20:07:36.719Z,10.48
2023-05-09T20:10:07.214Z,6.97
2023-05-09T20:12:35.861Z,7.22
2023-05-09T20:15:04.163Z,8.98
2023-05-09T20:17:32.432Z,10.20
2023-05-09T20:20:00.984Z,6.88
2023-05-09T20:22:29.215Z,5.28
2023-05-09T20:24:58.938Z,6.13
2023-05-09T20:27:27.382Z,5.97
2023-05-09T20:29:56.427Z,4.32
2023-05-09T20:32:24.626Z,3.88
2023-05-09T20:34:52.778Z,3.95
2023-05-09T20:37:20.953Z,6.65
2023-05-09T20:39:49.126Z,5.90
2023-05-09T20:42:18.626Z,4.97
2023-05-09T20:44:47.735Z,4.75
2023-05-09T20:47:17.410Z,4.97
2023-05-09T20:49:45.586Z,6.18
2023-05-09T20:52:13.987Z,4.88
2023-05-09T20:54:42.203Z,6.20
2023-05-09T20:57:10.371Z,5.28
2023-05-09T20:59:39.877Z,6.65
2023-05-09T21:02:08.306Z,6.07
2023-05-09T21:04:36.519Z,10.05
2023-05-09T21:07:04.677Z,6.55
2023-05-09T21:09:32.885Z,6.63
2023-05-09T21:12:03.651Z,7.97
2023-05-09T21:14:32.284Z,6.18
2023-05-09T21:17:04.213Z,4.72
2023-05-09T21:19:34.080Z,7.70
2023-05-09T21:22:02.274Z,8.15
2023-05-09T21:24:30.443Z,5.75
2023-05-09T21:26:58.589Z,6.20
2023-05-09T21:29:26.745Z,7.18
2023-05-09T21:31:57.979Z,7.70
2023-05-09T21:34:27.529Z,6.75
2023-05-09T21:36:55.667Z,8.27
2023-05-09T21:39:25.781Z,6.75
2023-05-09T21:41:53.971Z,8.45
2023-05-09T21:44:22.183Z,7.57
2023-05-09T21:46:50.352Z,6.60
2023-05-09T21:49:18.515Z,9.77
2023-05-09T21:51:48.076Z,6.80
2023-05-09T21:54:16.644Z,6.10
2023-05-09T21:56:44.821Z,9.70
2023-05-09T21:59:12.984Z,4.00
2023-05-09T22:01:41.769Z,5.80
2023-05-09T22:04:11.681Z,4.50
2023-05-09T22:06:42.827Z,5.25
2023-05-09T22:09:12.614Z,8.23
2023-05-09T22:11:41.146Z,6.25
2023-05-09T22:14:10.228Z,6.35
2023-05-09T22:16:38.474Z,6.45
2023-05-09T22:19:06.702Z,6.63
2023-05-09T22:21:35.093Z,4.93
2023-05-09T22:24:03.254Z,5.45
2023-05-09T22:26:33.119Z,4.45
2023-05-09T22:29:01.328Z,4.95
2023-05-09T22:31:29.991Z,6.13
2023-05-09T22:33:58.149Z,6.25
2023-05-09T22:36:26.724Z,5.15
2023-05-09T22:38:57.929Z,7.75
2023-05-09T22:41:26.180Z,6.22
2023-05-09T22:43:55.919Z,8.15
2023-05-09T22:46:24.129Z,9.60
2023-05-09T22:48:52.313Z,9.18
2023-05-09T22:51:20.444Z,9.85
2023-05-09T22:53:48.599Z,7.55
2023-05-09T22:56:16.807Z,13.13
2023-05-09T22:58:44.972Z,8.85
2023-05-09T23:01:14.503Z,12.32
2023-05-09T23:03:43.794Z,8.48
2023-05-09T23:06:12.300Z,15.15
2023-05-09T23:08:40.478Z,12.45
2023-05-09T23:11:08.820Z,10.10
2023-05-09T23:13:37.087Z,13.55
2023-05-09T23:16:05.567Z,11.65
2023-05-09T23:18:37.399Z,9.25
2023-05-09T23:21:06.296Z,10.40
2023-05-09T23:23:35.028Z,5.82
2023-05-09T23:26:03.233Z,5.75
2023-05-09T23:28:31.388Z,10.27
2023-05-09T23:30:59.578Z,8.55
2023-05-09T23:33:27.760Z,4.45
2023-05-09T23:35:57.632Z,4.03
2023-05-09T23:38:25.816Z,7.07
2023-05-09T23:40:56.022Z,5.22
2023-05-09T23:43:24.291Z,3.65
2023-05-09T23:45:52.809Z,7.97
2023-05-09T23:48:20.972Z,4.13
2023-05-09T23:50:50.928Z,6.55
2023-05-09T23:53:20.475Z,5.82
2023-05-09T23:55:48.648Z,3.97
2023-05-09T23:58:16.939Z,3.67
